sensor_id;sensor_type;location;lat;lon;timestamp;P1;durP1;ratioP1;P2;durP2;ratioP2
19221;SDS011;9745;50.828;4.378;2023-05-20T00:00:24;8.20;;;3.67;;
19221;SDS011;9745;50.828;4.378;2023-05-20T00:02:50;7.17;;;4.57;;
19221;SDS011;9745;50.828;4.378;2023-05-20T00:05:16;6.37;;;3.73;;
19221;SDS011;9745;50.828;4.378;2023-05-20T00:07:42;8.67;;;3.57;;
19221;SDS011;9745;50.828;4.378;2023-05-20T00:10:08;8.73;;;3.33;;
19221;SDS011;9745;50.828;4.378;2023-05-20T00:12:38;16.43;;;4.33;;
19221;SDS011;9745;50.828;4.378;2023-05-20T00:15:07;4.97;;;3.20;;
19221;SDS011;9745;50.828;4.378;2023-05-20T00:17:35;6.77;;;3.47;;
19221;SDS011;9745;50.828;4.378;2023-05-20T00:20:02;8.00;;;4.13;;
19221;SDS011;9745;50.828;4.378;2023-05-20T00:22:29;6.73;;;3.50;;
19221;SDS011;9745;50.828;4.378;2023-05-20T00:24:58;8.17;;;3.77;;
19221;SDS011;9745;50.828;4.378;2023-05-20T00:27:27;8.90;;;3.80;;
19221;SDS011;9745;50.828;4.378;2023-05-20T00:29:53;5.83;;;4.13;;
19221;SDS011;9745;50.828;4.378;2023-05-20T00:32:19;9.83;;;4.00;;
19221;SDS011;9745;50.828;4.378;2023-05-20T00:34:56;10.33;;;3.90;;
19221;SDS011;9745;50.828;4.378;2023-05-20T00:37:22;8.53;;;3.73;;
19221;SDS011;9745;50.828;4.378;2023-05-20T00:39:48;6.63;;;4.17;;
19221;SDS011;9745;50.828;4.378;2023-05-20T00:42:21;12.57;;;3.90;;
19221;SDS011;9745;50.828;4.378;2023-05-20T00:44:47;10.97;;;4.00;;
19221;SDS011;9745;50.828;4.378;2023-05-20T00:47:14;9.47;;;4.20;;
19221;SDS011;9745;50.828;4.378;2023-05-20T00:49:41;8.00;;;3.83;;
19221;SDS011;9745;50.828;4.378;2023-05-20T00:52:07;12.07;;;4.20;;
19221;SDS011;9745;50.828;4.378;2023-05-20T00:54:33;12.93;;;4.03;;
19221;SDS011;9745;50.828;4.378;2023-05-20T00:56:59;9.70;;;4.43;;
19221;SDS011;9745;50.828;4.378;2023-05-20T00:59:28;8.13;;;3.60;;
19221;SDS011;9745;50.828;4.378;2023-05-20T01:01:54;6.90;;;3.93;;
19221;SDS011;9745;50.828;4.378;2023-05-20T01:04:21;7.47;;;4.07;;
19221;SDS011;9745;50.828;4.378;2023-05-20T01:06:47;9.00;;;4.20;;
19221;SDS011;9745;50.828;4.378;2023-05-20T01:09:13;6.53;;;4.10;;
19221;SDS011;9745;50.828;4.378;2023-05-20T01:12:02;8.13;;;3.60;;
19221;SDS011;9745;50.828;4.378;2023-05-20T01:14:26;10.07;;;3.73;;
19221;SDS011;9745;50.828;4.378;2023-05-20T01:16:54;8.83;;;4.00;;
19221;SDS011;9745;50.828;4.378;2023-05-20T01:19:35;8.87;;;3.93;;
19221;SDS011;9745;50.828;4.378;2023-05-20T01:22:04;7.10;;;3.77;;
19221;SDS011;9745;50.828;4.378;2023-05-20T01:24:31;5.60;;;3.63;;
19221;SDS011;9745;50.828;4.378;2023-05-20T01:26:57;10.33;;;4.60;;
19221;SDS011;9745;50.828;4.378;2023-05-20T01:29:26;5.80;;;3.60;;
19221;SDS011;9745;50.828;4.378;2023-05-20T01:31:52;8.93;;;4.27;;
19221;SDS011;9745;50.828;4.378;2023-05-20T01:34:19;7.63;;;3.80;;
19221;SDS011;9745;50.828;4.378;2023-05-20T01:36:46;10.03;;;3.90;;
19221;SDS011;9745;50.828;4.378;2023-05-20T01:39:12;6.37;;;3.77;;
19221;SDS011;9745;50.828;4.378;2023-05-20T01:41:38;9.30;;;4.17;;
19221;SDS011;9745;50.828;4.378;2023-05-20T01:44:05;6.17;;;3.87;;
19221;SDS011;9745;50.828;4.378;2023-05-20T01:46:32;6.80;;;3.90;;
19221;SDS011;9745;50.828;4.378;2023-05-20T01:48:58;7.47;;;3.30;;
19221;SDS011;9745;50.828;4.378;2023-05-20T01:51:24;7.33;;;3.87;;
19221;SDS011;9745;50.828;4.378;2023-05-20T01:54:01;9.80;;;4.87;;
19221;SDS011;9745;50.828;4.378;2023-05-20T01:56:27;7.57;;;4.07;;
19221;SDS011;9745;50.828;4.378;2023-05-20T01:58:53;6.67;;;3.40;;
19221;SDS011;9745;50.828;4.378;2023-05-20T02:01:19;6.93;;;3.53;;
19221;SDS011;9745;50.828;4.378;2023-05-20T02:03:45;7.43;;;3.50;;
19221;SDS011;9745;50.828;4.378;2023-05-20T02:06:11;8.87;;;3.57;;
19221;SDS011;9745;50.828;4.378;2023-05-20T02:08:37;7.47;;;3.80;;
19221;SDS011;9745;50.828;4.378;2023-05-20T02:11:03;7.33;;;3.50;;
19221;SDS011;9745;50.828;4.378;2023-05-20T02:13:29;10.73;;;4.37;;
19221;SDS011;9745;50.828;4.378;2023-05-20T02:15:55;7.17;;;3.90;;
19221;SDS011;9745;50.828;4.378;2023-05-20T02:18:21;8.23;;;3.90;;
19221;SDS011;9745;50.828;4.378;2023-05-20T02:20:50;12.00;;;3.80;;
19221;SDS011;9745;50.828;4.378;2023-05-20T02:23:16;4.97;;;3.30;;
19221;SDS011;9745;50.828;4.378;2023-05-20T02:25:42;9.30;;;3.80;;
19221;SDS011;9745;50.828;4.378;2023-05-20T02:28:08;6.33;;;3.53;;
19221;SDS011;9745;50.828;4.378;2023-05-20T02:30:37;4.63;;;3.03;;
19221;SDS011;9745;50.828;4.378;2023-05-20T02:33:03;4.83;;;3.10;;
19221;SDS011;9745;50.828;4.378;2023-05-20T02:35:30;5.17;;;3.50;;
19221;SDS011;9745;50.828;4.378;2023-05-20T02:37:56;5.57;;;3.17;;
19221;SDS011;9745;50.828;4.378;2023-05-20T02:40:22;7.50;;;3.40;;
19221;SDS011;9745;50.828;4.378;2023-05-20T02:42:48;6.27;;;3.10;;
19221;SDS011;9745;50.828;4.378;2023-05-20T02:45:14;6.87;;;3.10;;
19221;SDS011;9745;50.828;4.378;2023-05-20T02:47:40;8.37;;;3.33;;
19221;SDS011;9745;50.828;4.378;2023-05-20T02:50:07;4.23;;;2.60;;
19221;SDS011;9745;50.828;4.378;2023-05-20T02:52:33;5.27;;;3.17;;
19221;SDS011;9745;50.828;4.378;2023-05-20T02:54:59;8.20;;;3.37;;
19221;SDS011;9745;50.828;4.378;2023-05-20T02:57:25;7.17;;;3.67;;
19221;SDS011;9745;50.828;4.378;2023-05-20T03:02:40;6.23;;;3.07;;
19221;SDS011;9745;50.828;4.378;2023-05-20T03:05:06;8.20;;;4.10;;
19221;SDS011;9745;50.828;4.378;2023-05-20T03:07:33;8.87;;;2.90;;
19221;SDS011;9745;50.828;4.378;2023-05-20T03:10:01;9.50;;;3.50;;
19221;SDS011;9745;50.828;4.378;2023-05-20T03:12:29;5.80;;;3.13;;
19221;SDS011;9745;50.828;4.378;2023-05-20T03:14:55;5.97;;;3.30;;
19221;SDS011;9745;50.828;4.378;2023-05-20T03:17:22;8.00;;;3.57;;
19221;SDS011;9745;50.828;4.378;2023-05-20T03:19:48;8.00;;;3.50;;
19221;SDS011;9745;50.828;4.378;2023-05-20T03:22:21;6.47;;;3.57;;
19221;SDS011;9745;50.828;4.378;2023-05-20T03:24:47;7.43;;;3.50;;
19221;SDS011;9745;50.828;4.378;2023-05-20T03:27:13;7.10;;;3.70;;
19221;SDS011;9745;50.828;4.378;2023-05-20T03:29:39;6.40;;;3.60;;
19221;SDS011;9745;50.828;4.378;2023-05-20T03:32:06;11.47;;;4.40;;
19221;SDS011;9745;50.828;4.378;2023-05-20T03:34:32;7.07;;;3.90;;
19221;SDS011;9745;50.828;4.378;2023-05-20T03:36:58;7.17;;;3.53;;
19221;SDS011;9745;50.828;4.378;2023-05-20T03:39:24;7.30;;;3.30;;
19221;SDS011;9745;50.828;4.378;2023-05-20T03:41:50;10.03;;;3.83;;
19221;SDS011;9745;50.828;4.378;2023-05-20T03:44:16;6.80;;;3.40;;
19221;SDS011;9745;50.828;4.378;2023-05-20T03:46:43;4.30;;;2.87;;
19221;SDS011;9745;50.828;4.378;2023-05-20T03:49:09;10.83;;;3.93;;
19221;SDS011;9745;50.828;4.378;2023-05-20T03:51:35;7.80;;;3.63;;
19221;SDS011;9745;50.828;4.378;2023-05-20T03:54:01;8.30;;;4.17;;
19221;SDS011;9745;50.828;4.378;2023-05-20T03:56:27;7.30;;;4.00;;
19221;SDS011;9745;50.828;4.378;2023-05-20T03:58:53;9.40;;;3.87;;
19221;SDS011;9745;50.828;4.378;2023-05-20T04:01:19;7.33;;;3.90;;
19221;SDS011;9745;50.828;4.378;2023-05-20T04:03:49;9.33;;;3.73;;
19221;SDS011;9745;50.828;4.378;2023-05-20T04:06:15;6.47;;;3.77;;
19221;SDS011;9745;50.828;4.378;2023-05-20T04:08:41;10.47;;;3.70;;
19221;SDS011;9745;50.828;4.378;2023-05-20T04:11:10;7.03;;;3.50;;
19221;SDS011;9745;50.828;4.378;2023-05-20T04:13:39;7.33;;;4.07;;
19221;SDS011;9745;50.828;4.378;2023-05-20T04:16:09;8.87;;;3.67;;
19221;SDS011;9745;50.828;4.378;2023-05-20T04:18:39;7.40;;;4.20;;
19221;SDS011;9745;50.828;4.378;2023-05-20T04:21:10;7.97;;;3.80;;
19221;SDS011;9745;50.828;4.378;2023-05-20T04:23:36;8.13;;;3.60;;
19221;SDS011;9745;50.828;4.378;2023-05-20T04:26:02;9.70;;;4.40;;
19221;SDS011;9745;50.828;4.378;2023-05-20T04:28:28;8.07;;;3.80;;
19221;SDS011;9745;50.828;4.378;2023-05-20T04:30:59;9.83;;;4.40;;
19221;SDS011;9745;50.828;4.378;2023-05-20T04:33:26;10.40;;;4.33;;
19221;SDS011;9745;50.828;4.378;2023-05-20T04:35:52;9.00;;;4.23;;
19221;SDS011;9745;50.828;4.378;2023-05-20T04:38:22;11.77;;;4.20;;
19221;SDS011;9745;50.828;4.378;2023-05-20T04:40:53;8.87;;;4.30;;
19221;SDS011;9745;50.828;4.378;2023-05-20T04:43:22;8.37;;;3.77;;
19221;SDS011;9745;50.828;4.378;2023-05-20T04:45:48;8.87;;;4.30;;
19221;SDS011;9745;50.828;4.378;2023-05-20T04:48:14;9.50;;;4.40;;
19221;SDS011;9745;50.828;4.378;2023-05-20T04:50:40;9.90;;;3.80;;
19221;SDS011;9745;50.828;4.378;2023-05-20T04:53:06;10.00;;;3.50;;
19221;SDS011;9745;50.828;4.378;2023-05-20T04:55:32;6.17;;;4.17;;
19221;SDS011;9745;50.828;4.378;2023-05-20T04:58:01;10.23;;;4.97;;
19221;SDS011;9745;50.828;4.378;2023-05-20T05:00:27;8.20;;;3.77;;
19221;SDS011;9745;50.828;4.378;2023-05-20T05:02:54;8.27;;;3.90;;
19221;SDS011;9745;50.828;4.378;2023-05-20T05:05:20;11.20;;;4.53;;
19221;SDS011;9745;50.828;4.378;2023-05-20T05:07:46;7.93;;;4.20;;
19221;SDS011;9745;50.828;4.378;2023-05-20T05:10:12;10.53;;;4.80;;
19221;SDS011;9745;50.828;4.378;2023-05-20T05:12:39;8.43;;;4.50;;
19221;SDS011;9745;50.828;4.378;2023-05-20T05:15:05;6.50;;;4.10;;
19221;SDS011;9745;50.828;4.378;2023-05-20T05:17:32;11.10;;;4.57;;
19221;SDS011;9745;50.828;4.378;2023-05-20T05:19:58;10.63;;;4.53;;
19221;SDS011;9745;50.828;4.378;2023-05-20T05:22:27;9.43;;;4.33;;
19221;SDS011;9745;50.828;4.378;2023-05-20T05:24:53;11.43;;;4.33;;
19221;SDS011;9745;50.828;4.378;2023-05-20T05:27:19;6.93;;;4.23;;
19221;SDS011;9745;50.828;4.378;2023-05-20T05:29:46;12.80;;;4.90;;
19221;SDS011;9745;50.828;4.378;2023-05-20T05:32:12;5.30;;;3.90;;
19221;SDS011;9745;50.828;4.378;2023-05-20T05:34:39;8.93;;;4.97;;
19221;SDS011;9745;50.828;4.378;2023-05-20T05:37:05;11.83;;;4.27;;
19221;SDS011;9745;50.828;4.378;2023-05-20T05:39:31;10.23;;;4.33;;
19221;SDS011;9745;50.828;4.378;2023-05-20T05:41:58;8.70;;;4.33;;
19221;SDS011;9745;50.828;4.378;2023-05-20T05:44:24;9.60;;;4.50;;
19221;SDS011;9745;50.828;4.378;2023-05-20T05:46:50;9.87;;;4.37;;
19221;SDS011;9745;50.828;4.378;2023-05-20T05:49:16;13.97;;;5.00;;
19221;SDS011;9745;50.828;4.378;2023-05-20T05:51:42;6.07;;;4.23;;
19221;SDS011;9745;50.828;4.378;2023-05-20T05:54:09;9.43;;;4.10;;
19221;SDS011;9745;50.828;4.378;2023-05-20T05:56:35;12.60;;;4.07;;
19221;SDS011;9745;50.828;4.378;2023-05-20T05:59:01;8.30;;;3.80;;
19221;SDS011;9745;50.828;4.378;2023-05-20T06:01:27;8.40;;;4.07;;
19221;SDS011;9745;50.828;4.378;2023-05-20T06:03:53;8.77;;;4.30;;
19221;SDS011;9745;50.828;4.378;2023-05-20T06:06:19;8.77;;;4.17;;
19221;SDS011;9745;50.828;4.378;2023-05-20T06:08:45;10.73;;;4.20;;
19221;SDS011;9745;50.828;4.378;2023-05-20T06:11:11;9.53;;;4.27;;
19221;SDS011;9745;50.828;4.378;2023-05-20T06:13:40;6.33;;;3.80;;
19221;SDS011;9745;50.828;4.378;2023-05-20T06:16:06;9.23;;;4.07;;
19221;SDS011;9745;50.828;4.378;2023-05-20T06:18:32;10.97;;;4.30;;
19221;SDS011;9745;50.828;4.378;2023-05-20T06:20:58;7.47;;;3.70;;
19221;SDS011;9745;50.828;4.378;2023-05-20T06:23:24;5.33;;;3.60;;
19221;SDS011;9745;50.828;4.378;2023-05-20T06:25:50;6.53;;;3.57;;
19221;SDS011;9745;50.828;4.378;2023-05-20T06:28:16;6.30;;;3.60;;
19221;SDS011;9745;50.828;4.378;2023-05-20T06:30:42;9.50;;;4.17;;
19221;SDS011;9745;50.828;4.378;2023-05-20T06:33:08;8.27;;;4.23;;
19221;SDS011;9745;50.828;4.378;2023-05-20T06:35:35;12.03;;;4.17;;
19221;SDS011;9745;50.828;4.378;2023-05-20T06:38:01;7.13;;;3.70;;
19221;SDS011;9745;50.828;4.378;2023-05-20T06:40:27;9.90;;;3.97;;
19221;SDS011;9745;50.828;4.378;2023-05-20T06:42:53;11.10;;;3.93;;
19221;SDS011;9745;50.828;4.378;2023-05-20T06:45:19;7.23;;;3.70;;
19221;SDS011;9745;50.828;4.378;2023-05-20T06:47:46;8.83;;;3.60;;
19221;SDS011;9745;50.828;4.378;2023-05-20T06:50:13;7.67;;;4.13;;
19221;SDS011;9745;50.828;4.378;2023-05-20T06:52:40;8.87;;;3.70;;
19221;SDS011;9745;50.828;4.378;2023-05-20T06:55:06;8.53;;;3.67;;
19221;SDS011;9745;50.828;4.378;2023-05-20T06:57:32;8.10;;;3.80;;
19221;SDS011;9745;50.828;4.378;2023-05-20T06:59:58;7.07;;;4.00;;
19221;SDS011;9745;50.828;4.378;2023-05-20T07:02:24;9.93;;;3.80;;
19221;SDS011;9745;50.828;4.378;2023-05-20T07:04:50;6.50;;;3.63;;
19221;SDS011;9745;50.828;4.378;2023-05-20T07:07:16;6.90;;;3.00;;
19221;SDS011;9745;50.828;4.378;2023-05-20T07:09:42;6.07;;;3.70;;
19221;SDS011;9745;50.828;4.378;2023-05-20T07:12:08;5.67;;;3.20;;
19221;SDS011;9745;50.828;4.378;2023-05-20T07:14:34;4.53;;;3.03;;
19221;SDS011;9745;50.828;4.378;2023-05-20T07:17:00;8.03;;;3.70;;
19221;SDS011;9745;50.828;4.378;2023-05-20T07:19:26;6.83;;;3.73;;
19221;SDS011;9745;50.828;4.378;2023-05-20T07:21:52;5.90;;;3.63;;
19221;SDS011;9745;50.828;4.378;2023-05-20T07:24:19;8.57;;;2.87;;
19221;SDS011;9745;50.828;4.378;2023-05-20T07:26:45;6.37;;;2.93;;
19221;SDS011;9745;50.828;4.378;2023-05-20T07:29:11;4.47;;;3.10;;
19221;SDS011;9745;50.828;4.378;2023-05-20T07:31:37;7.40;;;3.00;;
19221;SDS011;9745;50.828;4.378;2023-05-20T07:34:03;3.40;;;2.63;;
19221;SDS011;9745;50.828;4.378;2023-05-20T07:36:29;4.30;;;3.10;;
19221;SDS011;9745;50.828;4.378;2023-05-20T07:38:55;6.63;;;3.23;;
19221;SDS011;9745;50.828;4.378;2023-05-20T07:41:21;6.37;;;2.90;;
19221;SDS011;9745;50.828;4.378;2023-05-20T07:43:47;7.43;;;3.33;;
19221;SDS011;9745;50.828;4.378;2023-05-20T07:46:13;4.20;;;3.33;;
19221;SDS011;9745;50.828;4.378;2023-05-20T07:48:40;6.47;;;3.13;;
19221;SDS011;9745;50.828;4.378;2023-05-20T07:51:07;4.27;;;2.33;;
19221;SDS011;9745;50.828;4.378;2023-05-20T07:53:33;6.47;;;2.93;;
19221;SDS011;9745;50.828;4.378;2023-05-20T07:55:59;4.07;;;2.50;;
19221;SDS011;9745;50.828;4.378;2023-05-20T07:58:26;5.73;;;2.87;;
19221;SDS011;9745;50.828;4.378;2023-05-20T08:00:52;3.73;;;2.60;;
19221;SDS011;9745;50.828;4.378;2023-05-20T08:03:18;4.57;;;2.80;;
19221;SDS011;9745;50.828;4.378;2023-05-20T08:05:46;5.50;;;2.50;;
19221;SDS011;9745;50.828;4.378;2023-05-20T08:08:12;7.67;;;2.57;;
19221;SDS011;9745;50.828;4.378;2023-05-20T08:10:39;6.83;;;2.90;;
19221;SDS011;9745;50.828;4.378;2023-05-20T08:13:06;3.67;;;2.50;;
19221;SDS011;9745;50.828;4.378;2023-05-20T08:15:32;6.60;;;2.63;;
19221;SDS011;9745;50.828;4.378;2023-05-20T08:17:58;5.67;;;2.67;;
19221;SDS011;9745;50.828;4.378;2023-05-20T08:20:24;5.20;;;2.50;;
19221;SDS011;9745;50.828;4.378;2023-05-20T08:23:08;10.37;;;2.60;;
19221;SDS011;9745;50.828;4.378;2023-05-20T08:25:35;3.63;;;2.40;;
19221;SDS011;9745;50.828;4.378;2023-05-20T08:28:02;3.60;;;2.30;;
19221;SDS011;9745;50.828;4.378;2023-05-20T08:30:29;6.93;;;2.40;;
19221;SDS011;9745;50.828;4.378;2023-05-20T08:32:56;5.33;;;2.47;;
19221;SDS011;9745;50.828;4.378;2023-05-20T08:35:22;5.97;;;2.63;;
19221;SDS011;9745;50.828;4.378;2023-05-20T08:37:48;5.57;;;2.50;;
19221;SDS011;9745;50.828;4.378;2023-05-20T08:40:14;7.47;;;2.73;;
19221;SDS011;9745;50.828;4.378;2023-05-20T08:42:43;6.70;;;2.83;;
19221;SDS011;9745;50.828;4.378;2023-05-20T08:45:10;5.77;;;2.90;;
19221;SDS011;9745;50.828;4.378;2023-05-20T08:47:40;6.60;;;2.37;;
19221;SDS011;9745;50.828;4.378;2023-05-20T08:50:10;3.37;;;2.30;;
19221;SDS011;9745;50.828;4.378;2023-05-20T08:52:37;6.90;;;3.07;;
19221;SDS011;9745;50.828;4.378;2023-05-20T08:55:06;4.57;;;2.20;;
19221;SDS011;9745;50.828;4.378;2023-05-20T08:57:32;4.20;;;2.33;;
19221;SDS011;9745;50.828;4.378;2023-05-20T08:59:58;5.43;;;2.80;;
19221;SDS011;9745;50.828;4.378;2023-05-20T09:02:24;4.13;;;2.43;;
19221;SDS011;9745;50.828;4.378;2023-05-20T09:04:50;4.90;;;2.67;;
19221;SDS011;9745;50.828;4.378;2023-05-20T09:07:27;6.23;;;2.30;;
19221;SDS011;9745;50.828;4.378;2023-05-20T09:09:53;5.90;;;2.50;;
19221;SDS011;9745;50.828;4.378;2023-05-20T09:12:19;4.50;;;2.43;;
19221;SDS011;9745;50.828;4.378;2023-05-20T09:14:46;5.33;;;2.20;;
19221;SDS011;9745;50.828;4.378;2023-05-20T09:17:12;5.80;;;2.43;;
19221;SDS011;9745;50.828;4.378;2023-05-20T09:19:38;3.43;;;2.33;;
19221;SDS011;9745;50.828;4.378;2023-05-20T09:22:05;6.70;;;2.30;;
19221;SDS011;9745;50.828;4.378;2023-05-20T09:24:31;4.50;;;2.20;;
19221;SDS011;9745;50.828;4.378;2023-05-20T09:26:57;5.43;;;2.60;;
19221;SDS011;9745;50.828;4.378;2023-05-20T09:29:24;5.67;;;2.43;;
19221;SDS011;9745;50.828;4.378;2023-05-20T09:31:50;4.30;;;2.00;;
19221;SDS011;9745;50.828;4.378;2023-05-20T09:34:18;4.43;;;2.60;;
19221;SDS011;9745;50.828;4.378;2023-05-20T09:36:44;9.07;;;2.43;;
19221;SDS011;9745;50.828;4.378;2023-05-20T09:39:15;4.90;;;1.83;;
19221;SDS011;9745;50.828;4.378;2023-05-20T09:42:04;3.27;;;1.97;;
19221;SDS011;9745;50.828;4.378;2023-05-20T09:44:28;5.73;;;2.37;;
19221;SDS011;9745;50.828;4.378;2023-05-20T09:46:55;3.77;;;2.10;;
19221;SDS011;9745;50.828;4.378;2023-05-20T09:49:21;5.80;;;2.03;;
19221;SDS011;9745;50.828;4.378;2023-05-20T09:51:48;5.57;;;1.90;;
19221;SDS011;9745;50.828;4.378;2023-05-20T09:54:16;3.90;;;2.10;;
19221;SDS011;9745;50.828;4.378;2023-05-20T09:56:43;6.07;;;2.30;;
19221;SDS011;9745;50.828;4.378;2023-05-20T09:59:09;6.30;;;2.30;;
19221;SDS011;9745;50.828;4.378;2023-05-20T10:01:36;5.30;;;2.00;;
19221;SDS011;9745;50.828;4.378;2023-05-20T10:04:03;6.67;;;2.33;;
19221;SDS011;9745;50.828;4.378;2023-05-20T10:06:35;5.50;;;2.37;;
19221;SDS011;9745;50.828;4.378;2023-05-20T10:11:42;3.07;;;2.10;;
19221;SDS011;9745;50.828;4.378;2023-05-20T10:21:40;6.37;;;2.47;;
19221;SDS011;9745;50.828;4.378;2023-05-20T10:24:07;5.30;;;2.30;;
19221;SDS011;9745;50.828;4.378;2023-05-20T10:26:37;5.20;;;2.20;;
19221;SDS011;9745;50.828;4.378;2023-05-20T10:29:16;4.73;;;2.07;;
19221;SDS011;9745;50.828;4.378;2023-05-20T10:31:49;4.50;;;2.40;;
19221;SDS011;9745;50.828;4.378;2023-05-20T10:34:16;4.70;;;2.80;;
19221;SDS011;9745;50.828;4.378;2023-05-20T10:39:25;6.13;;;2.77;;
19221;SDS011;9745;50.828;4.378;2023-05-20T10:41:52;8.33;;;2.50;;
19221;SDS011;9745;50.828;4.378;2023-05-20T10:44:18;6.17;;;2.27;;
19221;SDS011;9745;50.828;4.378;2023-05-20T10:46:44;6.30;;;2.43;;
19221;SDS011;9745;50.828;4.378;2023-05-20T10:49:17;5.20;;;2.80;;
19221;SDS011;9745;50.828;4.378;2023-05-20T10:51:46;5.00;;;2.90;;
19221;SDS011;9745;50.828;4.378;2023-05-20T10:54:14;3.63;;;2.10;;
19221;SDS011;9745;50.828;4.378;2023-05-20T10:56:49;3.63;;;2.30;;
19221;SDS011;9745;50.828;4.378;2023-05-20T10:59:16;6.33;;;2.20;;
19221;SDS011;9745;50.828;4.378;2023-05-20T11:01:42;7.70;;;2.47;;
19221;SDS011;9745;50.828;4.378;2023-05-20T11:04:08;5.30;;;2.20;;
19221;SDS011;9745;50.828;4.378;2023-05-20T11:06:35;6.93;;;3.00;;
19221;SDS011;9745;50.828;4.378;2023-05-20T11:09:02;4.23;;;2.47;;
19221;SDS011;9745;50.828;4.378;2023-05-20T11:11:29;2.73;;;2.10;;
19221;SDS011;9745;50.828;4.378;2023-05-20T11:13:56;6.07;;;3.03;;
19221;SDS011;9745;50.828;4.378;2023-05-20T11:16:22;4.43;;;2.43;;
19221;SDS011;9745;50.828;4.378;2023-05-20T11:18:48;8.83;;;2.70;;
19221;SDS011;9745;50.828;4.378;2023-05-20T11:21:14;4.83;;;2.40;;
19221;SDS011;9745;50.828;4.378;2023-05-20T11:23:40;4.67;;;2.33;;
19221;SDS011;9745;50.828;4.378;2023-05-20T11:26:07;9.70;;;2.53;;
19221;SDS011;9745;50.828;4.378;2023-05-20T11:28:34;6.13;;;2.30;;
19221;SDS011;9745;50.828;4.378;2023-05-20T11:31:00;5.37;;;2.63;;
19221;SDS011;9745;50.828;4.378;2023-05-20T11:33:26;4.20;;;2.37;;
19221;SDS011;9745;50.828;4.378;2023-05-20T11:35:52;3.93;;;2.10;;
19221;SDS011;9745;50.828;4.378;2023-05-20T11:38:19;4.43;;;2.13;;
19221;SDS011;9745;50.828;4.378;2023-05-20T11:40:46;6.53;;;2.50;;
19221;SDS011;9745;50.828;4.378;2023-05-20T11:43:12;4.87;;;2.60;;
19221;SDS011;9745;50.828;4.378;2023-05-20T11:45:43;5.77;;;2.40;;
19221;SDS011;9745;50.828;4.378;2023-05-20T11:48:09;5.47;;;2.63;;
19221;SDS011;9745;50.828;4.378;2023-05-20T11:50:40;11.50;;;2.70;;
19221;SDS011;9745;50.828;4.378;2023-05-20T11:53:08;3.80;;;2.40;;
19221;SDS011;9745;50.828;4.378;2023-05-20T11:55:47;3.90;;;2.53;;
19221;SDS011;9745;50.828;4.378;2023-05-20T11:58:14;4.73;;;2.70;;
19221;SDS011;9745;50.828;4.378;2023-05-20T12:00:41;3.90;;;2.60;;
19221;SDS011;9745;50.828;4.378;2023-05-20T12:03:07;5.17;;;2.40;;
19221;SDS011;9745;50.828;4.378;2023-05-20T12:05:32;3.80;;;2.63;;
19221;SDS011;9745;50.828;4.378;2023-05-20T12:07:58;5.30;;;2.50;;
19221;SDS011;9745;50.828;4.378;2023-05-20T12:10:24;3.20;;;2.10;;
19221;SDS011;9745;50.828;4.378;2023-05-20T12:12:51;3.83;;;2.47;;
19221;SDS011;9745;50.828;4.378;2023-05-20T12:15:17;5.57;;;2.60;;
19221;SDS011;9745;50.828;4.378;2023-05-20T12:17:44;3.07;;;2.37;;
19221;SDS011;9745;50.828;4.378;2023-05-20T12:20:11;7.93;;;2.93;;
19221;SDS011;9745;50.828;4.378;2023-05-20T12:22:37;8.00;;;2.70;;
19221;SDS011;9745;50.828;4.378;2023-05-20T12:25:04;4.63;;;2.40;;
19221;SDS011;9745;50.828;4.378;2023-05-20T12:27:30;7.27;;;2.67;;
19221;SDS011;9745;50.828;4.378;2023-05-20T12:29:57;4.67;;;2.77;;
19221;SDS011;9745;50.828;4.378;2023-05-20T12:32:23;4.37;;;2.27;;
19221;SDS011;9745;50.828;4.378;2023-05-20T12:34:49;3.80;;;2.53;;
19221;SDS011;9745;50.828;4.378;2023-05-20T12:37:15;4.10;;;2.23;;
19221;SDS011;9745;50.828;4.378;2023-05-20T12:39:41;2.60;;;2.40;;
19221;SDS011;9745;50.828;4.378;2023-05-20T12:42:07;3.10;;;2.37;;
19221;SDS011;9745;50.828;4.378;2023-05-20T12:44:33;5.93;;;2.53;;
19221;SDS011;9745;50.828;4.378;2023-05-20T12:46:59;3.50;;;2.70;;
19221;SDS011;9745;50.828;4.378;2023-05-20T12:49:25;4.27;;;2.20;;
19221;SDS011;9745;50.828;4.378;2023-05-20T12:51:51;3.47;;;2.50;;
19221;SDS011;9745;50.828;4.378;2023-05-20T12:54:18;5.63;;;2.57;;
19221;SDS011;9745;50.828;4.378;2023-05-20T12:56:44;4.23;;;2.30;;
19221;SDS011;9745;50.828;4.378;2023-05-20T12:59:12;4.30;;;2.53;;
19221;SDS011;9745;50.828;4.378;2023-05-20T13:01:38;4.73;;;2.20;;
19221;SDS011;9745;50.828;4.378;2023-05-20T13:04:04;7.93;;;2.83;;
19221;SDS011;9745;50.828;4.378;2023-05-20T13:06:32;6.10;;;2.50;;
19221;SDS011;9745;50.828;4.378;2023-05-20T13:08:58;3.37;;;2.37;;
19221;SDS011;9745;50.828;4.378;2023-05-20T13:11:25;2.37;;;2.17;;
19221;SDS011;9745;50.828;4.378;2023-05-20T13:13:52;6.00;;;2.30;;
19221;SDS011;9745;50.828;4.378;2023-05-20T13:16:18;2.63;;;2.30;;
19221;SDS011;9745;50.828;4.378;2023-05-20T13:18:44;3.87;;;2.23;;
19221;SDS011;9745;50.828;4.378;2023-05-20T13:21:11;3.63;;;2.07;;
19221;SDS011;9745;50.828;4.378;2023-05-20T13:23:37;3.97;;;2.07;;
19221;SDS011;9745;50.828;4.378;2023-05-20T13:26:03;2.43;;;1.97;;
19221;SDS011;9745;50.828;4.378;2023-05-20T13:28:29;3.47;;;2.10;;
19221;SDS011;9745;50.828;4.378;2023-05-20T13:30:56;5.53;;;2.13;;
19221;SDS011;9745;50.828;4.378;2023-05-20T13:33:22;6.63;;;2.47;;
19221;SDS011;9745;50.828;4.378;2023-05-20T13:35:48;4.87;;;2.40;;
19221;SDS011;9745;50.828;4.378;2023-05-20T13:38:15;2.77;;;2.17;;
19221;SDS011;9745;50.828;4.378;2023-05-20T13:40:41;4.27;;;2.20;;
19221;SDS011;9745;50.828;4.378;2023-05-20T13:43:29;3.87;;;2.17;;
19221;SDS011;9745;50.828;4.378;2023-05-20T13:45:55;3.87;;;2.40;;
19221;SDS011;9745;50.828;4.378;2023-05-20T13:48:21;3.80;;;2.40;;
19221;SDS011;9745;50.828;4.378;2023-05-20T13:50:48;2.93;;;2.10;;
19221;SDS011;9745;50.828;4.378;2023-05-20T13:53:14;4.40;;;2.10;;
19221;SDS011;9745;50.828;4.378;2023-05-20T13:55:40;3.17;;;2.40;;
19221;SDS011;9745;50.828;4.378;2023-05-20T13:58:06;2.40;;;2.10;;
19221;SDS011;9745;50.828;4.378;2023-05-20T14:00:35;3.30;;;2.17;;
19221;SDS011;9745;50.828;4.378;2023-05-20T14:03:02;3.23;;;2.23;;
19221;SDS011;9745;50.828;4.378;2023-05-20T14:05:33;4.57;;;2.10;;
19221;SDS011;9745;50.828;4.378;2023-05-20T14:07:59;3.43;;;1.90;;
19221;SDS011;9745;50.828;4.378;2023-05-20T14:10:25;5.93;;;2.83;;
19221;SDS011;9745;50.828;4.378;2023-05-20T14:12:52;3.20;;;2.03;;
19221;SDS011;9745;50.828;4.378;2023-05-20T14:15:18;4.33;;;2.40;;
19221;SDS011;9745;50.828;4.378;2023-05-20T14:17:45;2.80;;;2.20;;
19221;SDS011;9745;50.828;4.378;2023-05-20T14:20:11;3.77;;;2.00;;
19221;SDS011;9745;50.828;4.378;2023-05-20T14:22:37;3.60;;;2.00;;
19221;SDS011;9745;50.828;4.378;2023-05-20T14:25:03;5.20;;;2.43;;
19221;SDS011;9745;50.828;4.378;2023-05-20T14:27:29;4.70;;;2.30;;
19221;SDS011;9745;50.828;4.378;2023-05-20T14:29:55;4.23;;;1.60;;
19221;SDS011;9745;50.828;4.378;2023-05-20T14:32:21;4.80;;;2.03;;
19221;SDS011;9745;50.828;4.378;2023-05-20T14:34:47;3.67;;;1.80;;
19221;SDS011;9745;50.828;4.378;2023-05-20T14:37:13;6.50;;;2.20;;
19221;SDS011;9745;50.828;4.378;2023-05-20T14:39:40;5.03;;;2.33;;
19221;SDS011;9745;50.828;4.378;2023-05-20T14:42:06;3.77;;;2.57;;
19221;SDS011;9745;50.828;4.378;2023-05-20T14:44:33;7.77;;;2.10;;
19221;SDS011;9745;50.828;4.378;2023-05-20T14:46:58;4.97;;;2.20;;
19221;SDS011;9745;50.828;4.378;2023-05-20T14:49:25;4.63;;;2.10;;
19221;SDS011;9745;50.828;4.378;2023-05-20T14:51:51;2.90;;;2.20;;
19221;SDS011;9745;50.828;4.378;2023-05-20T14:54:17;3.57;;;1.83;;
19221;SDS011;9745;50.828;4.378;2023-05-20T14:56:48;4.23;;;2.47;;
19221;SDS011;9745;50.828;4.378;2023-05-20T14:59:15;3.50;;;2.30;;
19221;SDS011;9745;50.828;4.378;2023-05-20T15:01:41;3.20;;;2.27;;
19221;SDS011;9745;50.828;4.378;2023-05-20T15:04:07;5.93;;;2.13;;
19221;SDS011;9745;50.828;4.378;2023-05-20T15:06:33;3.20;;;2.03;;
19221;SDS011;9745;50.828;4.378;2023-05-20T15:09:00;5.30;;;2.33;;
19221;SDS011;9745;50.828;4.378;2023-05-20T15:11:27;4.10;;;2.27;;
19221;SDS011;9745;50.828;4.378;2023-05-20T15:13:53;5.23;;;3.10;;